Portada
METAR-TAF:

METAR-TAF

Aeropuertos :

NWS Office

Majuro, Islas Marshall

latitud: 07-05N, longitud: 171-12E, altitud: 4 m

Observación

El informe se hizo hace 6 minutos, a las 16:57 UTC
Viento 12 kt del este
Temperatura 27°C
Humedad 84%
Presión 1011 hPa
Visibilidad: 24.1 km
Escasas nubes a una altura de 1400 ft
Nubes dispersas a una altura de 5000 ft
Cielo nuboso a una altura de 12000 ft
Cielo cubierto a una altura de 30000 ft

METAR: PKMR 271657Z 10012KT 15SM FEW014 SCT050 BKN120 OVC300 27/24 A2986 RMK SLP113 T02740242

Hora: 05:03 (17:03 UTC)


TAF: falta

Observaciones y pronósticos meteorológicos de más de 4000 aeropuertos (mensajes METAR y TAF).

Los puntos amarillos y rojos representan las estaciones disponibles.

Ponga el ratón en el punto deseado para ver el nombre de la estación.

Haga clic para ver las observaciones y los pronósticos meteorológicos.

Para cambiar el mapa : haga clic en los botones verdes con una cruz de color negro para hacer un zoom, en el botón verde con un guión para alejar o en las flechas verdes para mapas adyacentes.


METAR-TAF: